Time;durP1;ratioP1;P1;durP2;ratioP2;P2;SDS_P1;SDS_P2;PMS_P1;PMS_P2;Temp;Humidity;BMP_temperature;BMP_pressure;BME280_temperature;BME280_humidity;BME280_pressure;Samples;Min_cycle;Max_cycle;Signal;HPM_P1;HPM_P2
2023/12/17 00:03:37;;;;;;;12.40;8.35;;;;;;;6.69;77.40;102474.22;10301144;28;20053;-67
2023/12/17 00:08:38;;;;;;;14.35;8.20;;;;;;;6.70;77.52;102486.56;10294298;28;20116;-67
2023/12/17 00:13:43;;;;;;;10.02;7.70;;;;;;;6.58;78.77;102476.34;10277492;28;20175;-67
2023/12/17 00:18:45;;;;;;;10.48;8.18;;;;;;;6.65;78.28;102491.13;10292311;28;20125;-67
2023/12/17 00:23:47;;;;;;;15.05;9.25;;;;;;;6.56;78.64;102499.34;10302734;28;20069;-66
2023/12/17 00:28:48;;;;;;;12.35;8.52;;;;;;;6.61;79.12;102492.13;10311399;28;20054;-67
2023/12/17 00:33:50;;;;;;;10.00;8.40;;;;;;;6.72;78.39;102500.66;10283537;28;20054;-67
2023/12/17 00:38:51;;;;;;;11.30;8.02;;;;;;;6.65;78.37;102517.59;10296672;28;20053;-66
2023/12/17 00:43:53;;;;;;;10.50;7.57;;;;;;;6.61;78.65;102508.00;10294917;28;20058;-66
2023/12/17 00:48:54;;;;;;;12.27;8.15;;;;;;;6.60;78.38;102500.13;10295148;28;20184;-68
2023/12/17 00:53:56;;;;;;;17.52;9.27;;;;;;;6.61;78.04;102513.31;10310638;28;20441;-67
2023/12/17 00:58:58;;;;;;;13.75;8.65;;;;;;;6.63;78.22;102510.63;10300492;28;20563;-67
2023/12/17 01:03:59;;;;;;;13.20;8.20;;;;;;;6.66;78.01;102508.72;10301602;28;20109;-68
2023/12/17 01:09:02;;;;;;;11.18;8.73;;;;;;;6.56;78.27;102502.00;10294261;28;20141;-67
2023/12/17 01:14:04;;;;;;;12.02;8.70;;;;;;;6.54;78.13;102487.91;10288029;28;20596;-67
2023/12/17 01:19:06;;;;;;;10.95;9.13;;;;;;;6.39;78.39;102501.56;10304753;28;20058;-66
2023/12/17 01:24:08;;;;;;;13.13;10.35;;;;;;;6.31;78.67;102502.63;10290971;28;20054;-66
2023/12/17 01:29:09;;;;;;;12.40;8.90;;;;;;;6.26;79.59;102482.50;10289741;28;20053;-67
2023/12/17 01:34:13;;;;;;;12.70;9.18;;;;;;;6.42;78.86;102498.84;10302461;28;20049;-67
2023/12/17 01:39:17;;;;;;;13.27;9.80;;;;;;;6.44;78.13;102482.03;10271716;28;20369;-67
2023/12/17 01:44:19;;;;;;;12.68;8.82;;;;;;;6.41;78.52;102507.69;10276904;28;20192;-66
2023/12/17 01:49:21;;;;;;;14.88;9.68;;;;;;;6.43;78.53;102503.22;10292303;28;20614;-67
2023/12/17 01:54:22;;;;;;;14.45;9.18;;;;;;;6.47;78.28;102515.44;10286388;28;20045;-67
2023/12/17 01:59:24;;;;;;;11.65;8.60;;;;;;;6.42;78.54;102506.78;10280768;28;20050;-67
2023/12/17 02:04:26;;;;;;;12.30;8.88;;;;;;;6.44;78.10;102518.19;10301262;28;20133;-67
2023/12/17 02:09:28;;;;;;;16.90;9.77;;;;;;;6.34;78.22;102485.81;10279055;28;20157;-67
2023/12/17 02:14:29;;;;;;;13.18;9.82;;;;;;;6.29;78.50;102496.53;10299244;28;20054;-67
2023/12/17 02:19:31;;;;;;;12.65;10.23;;;;;;;6.20;79.26;102502.06;10287602;28;20342;-66
2023/12/17 02:24:33;;;;;;;16.83;9.98;;;;;;;6.29;79.49;102499.19;10292758;28;20062;-68
2023/12/17 02:29:34;;;;;;;14.75;9.52;;;;;;;6.22;78.93;102494.94;10281995;28;20166;-71
2023/12/17 02:34:37;;;;;;;16.42;9.43;;;;;;;6.23;79.22;102490.53;10290049;28;20062;-66
2023/12/17 02:39:38;;;;;;;13.38;9.35;;;;;;;6.20;79.31;102465.03;10285614;28;20780;-67
2023/12/17 02:44:40;;;;;;;12.70;9.40;;;;;;;6.34;79.74;102486.69;10278293;28;20132;-67
2023/12/17 02:49:43;;;;;;;10.00;8.75;;;;;;;6.41;78.91;102473.28;10285586;28;20072;-68
2023/12/17 02:54:44;;;;;;;14.30;10.00;;;;;;;6.23;79.41;102454.38;10299133;28;20065;-67
2023/12/17 02:59:48;;;;;;;14.60;9.90;;;;;;;6.17;79.91;102466.00;10308043;28;20053;-68
2023/12/17 03:04:49;;;;;;;15.70;10.23;;;;;;;6.21;80.73;102461.47;10300347;28;20117;-67
2023/12/17 03:09:54;;;;;;;14.43;9.70;;;;;;;6.24;80.15;102449.94;10301469;28;20231;-67
2023/12/17 03:14:56;;;;;;;15.02;10.85;;;;;;;6.02;80.74;102445.25;10295386;28;20058;-68
2023/12/17 03:19:59;;;;;;;13.98;8.68;;;;;;;6.08;81.12;102436.25;10296623;28;20050;-66
2023/12/17 03:25:01;;;;;;;11.38;9.68;;;;;;;6.06;80.97;102446.03;10299994;28;20071;-66
2023/12/17 03:30:04;;;;;;;14.35;8.85;;;;;;;6.12;81.30;102443.22;10296609;28;20058;-67
2023/12/17 03:35:07;;;;;;;12.85;8.50;;;;;;;6.16;81.30;102450.16;10297278;28;20046;-67
2023/12/17 03:40:09;;;;;;;14.38;9.38;;;;;;;6.19;81.01;102455.38;10280320;28;20058;-66
2023/12/17 03:45:11;;;;;;;14.90;10.02;;;;;;;6.16;81.33;102447.50;10295028;28;20133;-67
2023/12/17 03:50:14;;;;;;;12.15;9.70;;;;;;;6.12;81.59;102456.44;10297551;28;20053;-66
2023/12/17 03:55:16;;;;;;;11.23;8.68;;;;;;;6.11;81.80;102455.56;10304504;28;20653;-67
2023/12/17 04:00:17;;;;;;;13.18;9.85;;;;;;;6.16;82.14;102444.88;10304768;28;20046;-67
2023/12/17 04:05:19;;;;;;;11.82;9.07;;;;;;;6.15;82.26;102445.78;10280718;28;20618;-67
2023/12/17 04:10:21;;;;;;;10.95;9.15;;;;;;;6.12;82.45;102446.72;10295931;28;20046;-67
2023/12/17 04:15:22;;;;;;;11.38;9.63;;;;;;;6.03;82.89;102436.38;10278638;28;20065;-68
2023/12/17 04:20:24;;;;;;;13.63;9.73;;;;;;;6.11;83.28;102455.56;10299837;28;20458;-68
2023/12/17 04:25:26;;;;;;;14.45;9.90;;;;;;;5.93;83.25;102409.31;10276895;28;20045;-68
2023/12/17 04:30:27;;;;;;;11.25;8.98;;;;;;;6.12;83.33;102428.19;10298903;28;20046;-68
2023/12/17 04:35:31;;;;;;;16.67;9.97;;;;;;;6.17;83.31;102414.84;10296368;28;20046;-67
2023/12/17 04:40:33;;;;;;;13.98;9.60;;;;;;;6.17;83.68;102410.44;10281501;28;20054;-67
2023/12/17 04:45:34;;;;;;;14.00;9.77;;;;;;;5.89;83.92;102372.44;10292807;28;20055;-68
2023/12/17 04:50:36;;;;;;;15.02;8.98;;;;;;;6.14;84.26;102407.88;10290755;28;20128;-67
2023/12/17 04:55:38;;;;;;;11.82;8.98;;;;;;;6.24;83.90;102424.34;10278412;28;20075;-67
2023/12/17 05:00:40;;;;;;;15.40;11.23;;;;;;;6.11;83.63;102409.72;10286733;28;20085;-66
2023/12/17 05:05:42;;;;;;;12.60;9.93;;;;;;;6.13;84.64;102416.72;10280945;28;20160;-67
2023/12/17 05:10:45;;;;;;;14.77;10.55;;;;;;;6.05;84.62;102417.84;10287012;28;20166;-67
2023/12/17 05:15:49;;;;;;;14.73;10.40;;;;;;;6.10;84.50;102415.94;10286866;28;20307;-67
2023/12/17 05:20:50;;;;;;;17.15;10.25;;;;;;;5.87;85.77;102408.59;10298344;28;20054;-67
2023/12/17 05:25:52;;;;;;;13.05;9.95;;;;;;;5.84;87.18;102404.28;10280394;28;20071;-68
2023/12/17 05:30:55;;;;;;;12.90;10.10;;;;;;;5.92;87.62;102410.19;10290108;28;20052;-68
2023/12/17 05:35:57;;;;;;;14.25;10.70;;;;;;;5.88;87.90;102399.75;10270611;28;20144;-68
2023/12/17 05:40:58;;;;;;;14.35;9.88;;;;;;;5.99;88.26;102403.88;10293685;28;20235;-66
2023/12/17 05:45:59;;;;;;;15.82;11.25;;;;;;;5.93;87.83;102396.09;10307712;28;20811;-68
2023/12/17 05:51:08;;;;;;;12.82;10.40;;;;;;;5.94;88.22;102411.03;10293893;28;20054;-67
2023/12/17 05:56:11;;;;;;;14.98;10.27;;;;;;;5.87;88.14;102409.47;10289345;28;20070;-70
2023/12/17 06:01:13;;;;;;;15.80;10.35;;;;;;;5.81;88.45;102420.19;10299858;28;20061;-68
2023/12/17 06:06:15;;;;;;;15.77;11.50;;;;;;;5.57;89.47;102404.06;10299030;28;20049;-68
2023/12/17 06:11:17;;;;;;;15.68;11.27;;;;;;;5.81;89.34;102409.59;10292973;28;20454;-68
2023/12/17 06:16:19;;;;;;;15.43;10.73;;;;;;;5.85;88.76;102416.56;10280630;28;20684;-67
2023/12/17 06:21:26;;;;;;;12.77;9.35;;;;;;;5.99;88.55;102435.59;10304081;28;20141;-67
2023/12/17 06:26:28;;;;;;;13.93;10.07;;;;;;;5.86;88.94;102428.88;10288412;28;20058;-67
2023/12/17 06:31:30;;;;;;;17.77;10.75;;;;;;;5.92;88.88;102435.78;10299795;28;20054;-67
2023/12/17 06:36:32;;;;;;;13.70;10.65;;;;;;;5.88;89.75;102427.03;10286248;28;20060;-67
2023/12/17 06:41:33;;;;;;;15.05;10.70;;;;;;;5.88;90.35;102426.19;10302537;28;20065;-67
2023/12/17 06:46:35;;;;;;;14.10;10.68;;;;;;;5.81;89.87;102393.75;10298072;28;20061;-67
2023/12/17 06:51:40;;;;;;;13.93;10.65;;;;;;;5.94;89.77;102426.03;10294004;28;20065;-67
2023/12/17 06:56:46;;;;;;;14.25;10.50;;;;;;;5.98;90.43;102427.72;10297769;28;20123;-68
2023/12/17 07:01:47;;;;;;;14.93;11.20;;;;;;;6.04;90.18;102416.97;10302850;28;20050;-68
2023/12/17 07:06:48;;;;;;;16.77;11.32;;;;;;;6.01;90.21;102423.22;10300833;28;20080;-67
2023/12/17 07:11:50;;;;;;;17.10;11.73;;;;;;;5.98;91.13;102423.28;10284669;28;20114;-68
2023/12/17 07:16:51;;;;;;;15.88;11.40;;;;;;;6.12;91.26;102428.19;10310515;28;20065;-67
2023/12/17 07:21:56;;;;;;;15.45;10.25;;;;;;;6.10;90.72;102423.88;10290501;28;20054;-67
2023/12/17 07:26:58;;;;;;;17.05;11.90;;;;;;;6.06;90.77;102425.72;10294993;28;20148;-68
2023/12/17 07:31:59;;;;;;;20.38;11.38;;;;;;;5.95;91.84;102428.63;10295402;28;20169;-66
2023/12/17 07:37:00;;;;;;;15.70;12.02;;;;;;;5.89;92.21;102418.22;10295330;28;20058;-66
2023/12/17 07:42:02;;;;;;;20.70;12.10;;;;;;;6.04;92.23;102434.63;10294292;28;20054;-67
2023/12/17 07:47:05;;;;;;;16.70;11.60;;;;;;;6.07;92.39;102434.53;10310255;28;20058;-67
2023/12/17 07:52:07;;;;;;;15.98;11.38;;;;;;;6.09;92.33;102433.56;10299023;28;20059;-66
2023/12/17 07:57:09;;;;;;;16.45;11.63;;;;;;;6.00;92.80;102410.91;10297621;28;20058;-67
2023/12/17 08:02:11;;;;;;;17.05;11.40;;;;;;;6.07;92.90;102427.47;10290487;28;20398;-67
2023/12/17 08:07:12;;;;;;;17.17;11.50;;;;;;;5.91;93.80;102410.25;10270165;28;20125;-67
2023/12/17 08:12:14;;;;;;;21.10;12.98;;;;;;;5.93;94.63;102425.16;10302146;28;20054;-66
2023/12/17 08:17:16;;;;;;;15.95;12.48;;;;;;;5.96;95.03;102435.66;10276033;28;20104;-67
2023/12/17 08:22:17;;;;;;;21.52;12.48;;;;;;;6.06;95.03;102449.53;10293416;28;20129;-69
2023/12/17 08:27:19;;;;;;;14.25;10.75;;;;;;;6.12;95.19;102457.28;10295725;28;20128;-65
2023/12/17 08:32:21;;;;;;;19.00;11.98;;;;;;;5.98;96.00;102455.00;10274787;28;20056;-69
2023/12/17 08:37:24;;;;;;;18.25;11.55;;;;;;;5.98;96.04;102462.94;10301723;28;21435;-67
2023/12/17 08:42:26;;;;;;;18.52;11.55;;;;;;;5.96;96.58;102446.25;10265905;28;20201;-67
2023/12/17 08:47:29;;;;;;;16.25;11.90;;;;;;;6.08;96.28;102460.06;10294360;28;20108;-67
2023/12/17 08:52:32;;;;;;;17.17;11.38;;;;;;;6.05;96.93;102462.78;10296353;28;20825;-67
2023/12/17 08:57:34;;;;;;;18.80;11.63;;;;;;;6.17;96.92;102460.69;10296554;28;20806;-67
2023/12/17 09:02:38;;;;;;;16.13;9.65;;;;;;;6.12;96.77;102470.50;10292855;28;20050;-66
2023/12/17 09:07:40;;;;;;;15.02;9.77;;;;;;;6.05;97.04;102454.84;10292335;28;20050;-66
2023/12/17 09:12:42;;;;;;;14.85;9.60;;;;;;;6.14;96.64;102467.81;10279613;28;20043;-67
2023/12/17 09:17:44;;;;;;;16.98;9.45;;;;;;;6.01;97.12;102475.22;10289671;28;20129;-66
2023/12/17 09:22:46;;;;;;;16.73;10.68;;;;;;;5.94;96.95;102471.81;10285472;28;20524;-67
2023/12/17 09:27:51;;;;;;;13.52;9.65;;;;;;;5.93;97.01;102478.03;10309023;28;20108;-67
2023/12/17 09:32:53;;;;;;;;;;;;;;;6.00;96.31;102474.38;10280812;28;20069;-67
2023/12/17 09:37:54;;;;;;;15.20;10.75;;;;;;;6.04;96.29;102474.28;10290925;28;20363;-67
2023/12/17 09:42:56;;;;;;;14.23;9.82;;;;;;;5.86;96.26;102436.81;10295213;28;20157;-67
2023/12/17 09:47:58;;;;;;;17.20;11.15;;;;;;;6.09;95.94;102452.09;10294896;28;20062;-67
2023/12/17 09:53:00;;;;;;;14.23;10.57;;;;;;;6.14;94.44;102465.19;10294303;28;20603;-64
2023/12/17 09:58:04;;;;;;;13.90;9.90;;;;;;;6.28;94.18;102470.97;10291406;28;20064;-68
2023/12/17 10:03:05;;;;;;;15.85;11.60;;;;;;;6.28;94.09;102468.34;10290689;28;20471;-67
2023/12/17 10:08:09;;;;;;;18.43;13.33;;;;;;;6.43;92.93;102474.13;10304391;28;20077;-66
2023/12/17 10:13:12;;;;;;;15.55;11.90;;;;;;;6.51;91.46;102456.25;10299160;28;20571;-68
2023/12/17 10:18:15;;;;;;;18.30;13.02;;;;;;;6.46;89.99;102444.94;10280926;28;20249;-67
2023/12/17 10:23:18;;;;;;;14.30;11.57;;;;;;;6.44;90.11;102430.88;10295351;28;20553;-68
2023/12/17 10:28:20;;;;;;;20.27;16.05;;;;;;;6.45;88.29;102435.25;10294334;28;20051;-67
2023/12/17 10:33:28;;;;;;;18.95;15.57;;;;;;;6.58;88.02;102423.41;10275810;28;20132;-67
2023/12/17 10:38:32;;;;;;;20.83;14.57;;;;;;;6.50;87.75;102420.09;10277930;28;20054;-66
2023/12/17 10:43:35;;;;;;;17.85;14.70;;;;;;;6.46;88.07;102408.75;10294801;28;20042;-66
2023/12/17 10:48:37;;;;;;;18.77;14.00;;;;;;;6.34;88.46;102393.25;10296202;28;20058;-66
2023/12/17 10:53:38;;;;;;;18.67;12.80;;;;;;;6.33;88.23;102391.50;10292629;28;20217;-67
2023/12/17 10:58:42;;;;;;;20.30;14.38;;;;;;;6.39;88.14;102388.66;10274176;28;20151;-65
2023/12/17 11:03:43;;;;;;;20.35;15.00;;;;;;;6.10;87.38;102349.84;10308684;28;20056;-68
2023/12/17 11:08:46;;;;;;;21.50;17.48;;;;;;;6.29;87.87;102363.38;10297076;28;20132;-68
2023/12/17 11:13:48;;;;;;;27.27;24.50;;;;;;;6.31;86.78;102365.09;10303212;28;20047;-68
2023/12/17 11:18:53;;;;;;;17.90;14.75;;;;;;;6.28;86.49;102362.53;10289034;28;20416;-70
2023/12/17 11:23:58;;;;;;;52.13;47.55;;;;;;;6.36;87.46;102357.91;10301372;28;20074;-70
2023/12/17 11:29:00;;;;;;;28.98;24.13;;;;;;;6.47;87.41;102354.06;10301221;28;20050;-69
2023/12/17 11:34:02;;;;;;;26.35;22.13;;;;;;;6.41;86.67;102346.28;10297982;28;20054;-69
2023/12/17 11:39:04;;;;;;;24.65;18.63;;;;;;;6.20;88.25;102346.03;10296139;28;20050;-70
2023/12/17 11:44:06;;;;;;;24.75;17.77;;;;;;;6.27;88.28;102328.19;10270361;28;20059;-68
2023/12/17 11:49:08;;;;;;;21.70;17.25;;;;;;;6.27;89.13;102331.69;10301398;28;20054;-67
2023/12/17 11:54:23;;;;;;;20.80;14.25;;;;;;;6.31;88.37;102317.47;10305644;28;20058;-66
2023/12/17 11:59:33;;;;;;;23.55;17.98;;;;;;;6.39;88.53;102321.69;10284084;28;20047;-67
2023/12/17 12:04:41;;;;;;;22.40;17.98;;;;;;;6.41;88.45;102315.44;10287376;28;20133;-67
2023/12/17 12:09:47;;;;;;;20.90;15.18;;;;;;;6.36;87.75;102312.94;10281047;28;20069;-68
2023/12/17 12:14:50;;;;;;;19.40;15.40;;;;;;;6.26;88.17;102311.47;10296416;28;20085;-67
2023/12/17 12:19:53;;;;;;;20.48;14.90;;;;;;;6.08;88.79;102273.22;10282295;28;20455;-68
2023/12/17 12:24:56;;;;;;;23.20;16.42;;;;;;;6.33;87.99;102301.56;10298299;28;20050;-67
2023/12/17 12:29:57;;;;;;;19.10;14.00;;;;;;;6.34;87.85;102295.38;10306574;28;20058;-67
2023/12/17 12:35:03;;;;;;;19.35;15.20;;;;;;;6.37;87.67;102293.47;10292312;28;20203;-67
2023/12/17 12:40:06;;;;;;;17.40;12.77;;;;;;;6.35;87.31;102295.31;10298331;28;20484;-67
2023/12/17 12:45:12;;;;;;;20.08;13.77;;;;;;;6.29;88.00;102281.41;10289290;28;20664;-67
2023/12/17 12:50:14;;;;;;;16.77;13.15;;;;;;;6.32;88.12;102274.25;10301594;28;20769;-67
2023/12/17 12:55:17;;;;;;;20.08;15.30;;;;;;;6.34;88.19;102266.28;10307044;28;20568;-67
2023/12/17 13:00:18;;;;;;;19.80;14.38;;;;;;;6.25;87.92;102254.19;10314096;28;20065;-67
2023/12/17 13:05:22;;;;;;;22.90;15.25;;;;;;;6.34;89.04;102255.69;10298608;28;20054;-67
2023/12/17 13:10:24;;;;;;;20.85;16.25;;;;;;;6.39;88.78;102255.53;10306667;28;20050;-66
2023/12/17 13:15:25;;;;;;;23.63;16.65;;;;;;;6.39;89.06;102232.59;10288161;28;20158;-65
2023/12/17 13:20:27;;;;;;;19.42;14.25;;;;;;;6.49;88.63;102236.69;10289359;28;20050;-66
2023/12/17 13:25:30;;;;;;;15.15;12.40;;;;;;;6.16;87.19;102198.94;10293777;28;20046;-66
2023/12/17 13:30:32;;;;;;;16.77;13.00;;;;;;;6.49;87.93;102233.19;10284308;28;20066;-66
2023/12/17 13:35:35;;;;;;;19.42;15.07;;;;;;;6.51;87.28;102226.06;10294195;28;20061;-66
2023/12/17 13:40:39;;;;;;;19.00;14.40;;;;;;;6.52;87.39;102223.34;10292370;28;20050;-67
2023/12/17 13:45:40;;;;;;;20.08;15.18;;;;;;;6.44;87.36;102229.81;10294517;28;20063;-67
2023/12/17 13:50:43;;;;;;;20.75;14.80;;;;;;;6.62;86.77;102218.66;10278389;28;20201;-64
2023/12/17 13:55:45;;;;;;;17.20;14.25;;;;;;;6.62;86.98;102208.06;10291296;28;20050;-66
2023/12/17 14:00:47;;;;;;;18.52;14.00;;;;;;;6.69;86.80;102212.22;10290183;28;20042;-67
2023/12/17 14:05:49;;;;;;;18.00;13.52;;;;;;;6.73;86.29;102213.84;10276941;28;20054;-67
2023/12/17 14:10:52;;;;;;;17.35;13.45;;;;;;;6.87;85.13;102207.22;10301466;28;20051;-66
2023/12/17 14:15:54;;;;;;;18.98;12.57;;;;;;;7.13;85.04;102213.41;10298735;28;20058;-67
2023/12/17 14:20:57;;;;;;;17.02;13.65;;;;;;;7.13;84.18;102197.53;10300052;28;20559;-66
2023/12/17 14:25:59;;;;;;;21.25;14.73;;;;;;;7.10;83.87;102200.28;10282814;28;20058;-66
2023/12/17 14:31:01;;;;;;;17.83;14.13;;;;;;;6.92;83.70;102197.38;10290895;28;20050;-67
2023/12/17 14:36:03;;;;;;;22.58;16.63;;;;;;;6.85;84.21;102193.19;10292176;28;20058;-67
2023/12/17 14:41:04;;;;;;;18.40;14.50;;;;;;;6.82;85.03;102185.34;10300388;28;20088;-66
2023/12/17 14:46:05;;;;;;;18.65;15.20;;;;;;;6.77;85.14;102179.34;10289593;28;20616;-66
2023/12/17 14:51:07;;;;;;;20.50;15.45;;;;;;;6.70;86.06;102182.19;10295987;28;20049;-67
2023/12/17 14:56:08;;;;;;;17.13;13.98;;;;;;;6.49;86.69;102151.16;10291872;28;20069;-67
2023/12/17 15:01:14;;;;;;;21.73;16.02;;;;;;;6.60;87.55;102186.06;10292396;28;20053;-66
2023/12/17 15:06:28;;;;;;;20.60;15.00;;;;;;;6.62;87.49;102186.88;10296122;28;20665;-66
2023/12/17 15:11:30;;;;;;;20.75;15.45;;;;;;;6.64;88.22;102190.34;10280296;28;20524;-65
2023/12/17 15:16:31;;;;;;;19.23;16.00;;;;;;;6.62;88.87;102184.25;10308861;28;20693;-66
2023/12/17 15:21:33;;;;;;;25.27;17.13;;;;;;;6.53;88.77;102181.88;10315855;28;20152;-68
2023/12/17 15:26:39;;;;;;;24.48;18.52;;;;;;;6.46;89.66;102177.72;10300908;28;20120;-66
2023/12/17 15:31:42;;;;;;;28.25;18.05;;;;;;;6.38;90.03;102170.03;10265290;28;20053;-67
2023/12/17 15:36:43;;;;;;;24.05;17.13;;;;;;;6.40;89.72;102170.00;10307103;28;20166;-67
2023/12/17 15:41:46;;;;;;;23.23;15.30;;;;;;;6.37;89.41;102163.88;10307465;28;20073;-65
2023/12/17 15:46:48;;;;;;;22.42;15.82;;;;;;;6.41;89.57;102171.69;10295163;28;20072;-67
2023/12/17 15:51:49;;;;;;;21.33;15.98;;;;;;;6.40;89.50;102162.91;10296275;28;21013;-65
2023/12/17 15:56:51;;;;;;;22.67;17.55;;;;;;;6.33;89.30;102167.50;10299635;28;20061;-67
2023/12/17 16:01:53;;;;;;;23.23;17.52;;;;;;;6.37;90.17;102177.09;10297126;28;20054;-67
2023/12/17 16:06:54;;;;;;;20.17;16.23;;;;;;;6.19;90.03;102141.50;10297818;28;20253;-67
2023/12/17 16:11:56;;;;;;;20.67;13.25;;;;;;;6.41;89.96;102171.69;10300204;28;20058;-66
2023/12/17 16:17:00;;;;;;;19.65;13.18;;;;;;;6.33;90.27;102161.38;10297580;28;20077;-66
2023/12/17 16:22:02;;;;;;;22.13;15.50;;;;;;;6.29;90.91;102175.59;10281292;28;20646;-67
2023/12/17 16:27:06;;;;;;;19.40;13.88;;;;;;;6.19;92.42;102182.97;10302666;28;20057;-67
2023/12/17 16:32:07;;;;;;;19.27;13.90;;;;;;;6.30;92.54;102180.84;10299734;28;20047;-66
2023/12/17 16:37:11;;;;;;;16.48;12.43;;;;;;;6.35;92.07;102185.97;10315976;28;20058;-66
2023/12/17 16:42:13;;;;;;;18.42;12.55;;;;;;;6.34;91.31;102186.91;10301165;28;20196;-66
2023/12/17 16:47:14;;;;;;;15.40;12.77;;;;;;;6.36;91.55;102180.66;10292310;28;20153;-68
2023/12/17 16:52:16;;;;;;;17.30;12.63;;;;;;;6.43;91.09;102197.19;10288853;28;20054;-67
2023/12/17 16:57:19;;;;;;;19.45;14.02;;;;;;;6.42;91.71;102191.97;10279518;28;20061;-67
2023/12/17 17:02:20;;;;;;;20.80;13.68;;;;;;;6.39;91.95;102200.00;10294056;28;20069;-68
2023/12/17 17:07:22;;;;;;;20.17;14.55;;;;;;;6.34;92.87;102198.34;10298555;28;20056;-68
2023/12/17 17:12:28;;;;;;;20.35;14.25;;;;;;;6.39;92.52;102202.63;10297854;28;20057;-66
2023/12/17 17:17:29;;;;;;;18.08;14.82;;;;;;;6.36;92.70;102201.84;10301743;28;20188;-68
2023/12/17 17:22:33;;;;;;;15.77;11.77;;;;;;;6.40;92.76;102207.88;10282791;28;20050;-67
2023/12/17 17:27:35;;;;;;;25.15;18.42;;;;;;;6.21;93.61;102197.00;10299982;28;20416;-66
2023/12/17 17:32:37;;;;;;;23.50;18.55;;;;;;;6.17;94.48;102200.66;10288459;28;20491;-66
2023/12/17 17:37:39;;;;;;;22.23;17.58;;;;;;;6.19;94.57;102204.13;10301520;28;20417;-67
2023/12/17 17:42:41;;;;;;;25.23;19.13;;;;;;;6.26;94.59;102202.16;10298082;28;20054;-67
2023/12/17 17:47:43;;;;;;;26.92;19.80;;;;;;;6.29;93.68;102204.69;10296431;28;20042;-66
2023/12/17 17:52:44;;;;;;;29.58;18.73;;;;;;;6.31;94.07;102208.19;10286060;28;20133;-67
2023/12/17 17:57:46;;;;;;;25.77;18.88;;;;;;;6.31;94.20;102214.31;10304628;28;20206;-67
2023/12/17 18:02:47;;;;;;;27.38;21.15;;;;;;;6.29;94.11;102205.56;10297457;28;20058;-65
2023/12/17 18:07:49;;;;;;;29.90;23.63;;;;;;;6.32;94.74;102215.16;10290510;28;20065;-67
2023/12/17 18:12:52;;;;;;;33.53;26.30;;;;;;;6.31;94.61;102216.97;10296746;28;20046;-67
2023/12/17 18:17:59;;;;;;;32.67;25.25;;;;;;;6.35;95.00;102215.97;10285595;28;20550;-66
2023/12/17 18:23:02;;;;;;;35.53;23.48;;;;;;;6.37;94.88;102216.78;10295602;28;20046;-65
2023/12/17 18:28:05;;;;;;;44.92;31.90;;;;;;;6.46;95.20;102217.41;10272644;28;20052;-66
2023/12/17 18:33:06;;;;;;;32.65;23.17;;;;;;;6.47;94.83;102213.81;10295601;28;20106;-68
2023/12/17 18:38:08;;;;;;;31.23;23.08;;;;;;;6.33;94.96;102216.91;10296624;28;21696;-68
2023/12/17 18:43:09;;;;;;;37.97;26.05;;;;;;;6.42;94.86;102211.31;10306414;28;20068;-65
2023/12/17 18:48:11;;;;;;;39.17;27.23;;;;;;;6.35;94.96;102213.31;10291174;28;20935;-67
2023/12/17 18:53:13;;;;;;;38.40;26.77;;;;;;;6.39;95.24;102206.13;10305666;28;20137;-68
2023/12/17 18:58:14;;;;;;;37.53;25.98;;;;;;;6.40;95.84;102213.16;10288207;28;20058;-69
2023/12/17 19:03:16;;;;;;;44.97;28.17;;;;;;;6.28;96.49;102210.91;10285989;28;20058;-69
2023/12/17 19:08:19;;;;;;;40.95;27.58;;;;;;;6.24;97.29;102212.78;10293141;28;20050;-67
2023/12/17 19:13:20;;;;;;;41.58;28.05;;;;;;;6.33;96.64;102212.47;10287176;28;20419;-67
2023/12/17 19:18:22;;;;;;;38.38;25.15;;;;;;;6.35;95.75;102220.38;10291366;28;20146;-65
2023/12/17 19:23:24;;;;;;;55.17;49.55;;;;;;;6.26;94.91;102205.69;10294782;28;20054;-67
2023/12/17 19:28:29;;;;;;;38.35;28.27;;;;;;;6.14;94.76;102206.03;10281472;28;20093;-69
2023/12/17 19:33:30;;;;;;;39.38;26.17;;;;;;;6.09;95.31;102208.81;10306353;28;20484;-65
2023/12/17 19:38:32;;;;;;;38.10;26.92;;;;;;;6.01;95.59;102209.06;10296248;28;20073;-66
2023/12/17 19:43:33;;;;;;;39.78;29.42;;;;;;;5.93;95.58;102195.19;10312756;28;20151;-66
2023/12/17 19:48:35;;;;;;;33.88;25.25;;;;;;;5.94;96.30;102203.97;10278973;28;20046;-67
2023/12/17 19:53:37;;;;;;;32.70;26.17;;;;;;;5.99;96.15;102195.03;10303376;28;20148;-67
2023/12/17 19:58:43;;;;;;;41.90;27.42;;;;;;;5.98;95.56;102190.66;10282322;28;20417;-69
2023/12/17 20:03:50;;;;;;;37.03;26.25;;;;;;;5.90;94.97;102182.06;10286647;28;20046;-68
2023/12/17 20:08:52;;;;;;;43.58;34.55;;;;;;;5.94;94.45;102188.97;10301836;28;20159;-68
2023/12/17 20:13:55;;;;;;;36.10;24.90;;;;;;;5.74;94.90;102186.94;10286875;28;20220;-66
2023/12/17 20:19:00;;;;;;;37.15;27.60;;;;;;;5.75;95.42;102182.50;10286964;28;20058;-67
2023/12/17 20:24:01;;;;;;;30.10;23.42;;;;;;;5.76;95.57;102184.22;10312674;28;20401;-66
2023/12/17 20:29:03;;;;;;;37.30;26.10;;;;;;;5.82;95.06;102184.06;10295285;28;20073;-67
2023/12/17 20:34:04;;;;;;;36.35;26.70;;;;;;;5.82;94.78;102173.47;10282867;28;20046;-67
2023/12/17 20:39:06;;;;;;;32.45;23.35;;;;;;;5.76;95.06;102173.66;10282611;28;20749;-65
2023/12/17 20:44:08;;;;;;;31.58;23.98;;;;;;;5.78;95.73;102188.56;10301099;28;20106;-66
2023/12/17 20:49:09;;;;;;;38.53;26.60;;;;;;;5.79;95.65;102173.56;10300787;28;20054;-68
2023/12/17 20:54:11;;;;;;;31.45;24.05;;;;;;;5.90;95.16;102176.78;10274624;28;20571;-68
2023/12/17 20:59:12;;;;;;;32.38;25.13;;;;;;;5.89;94.73;102196.19;10300742;28;20081;-67
2023/12/17 21:04:15;;;;;;;33.90;24.50;;;;;;;5.89;94.79;102180.31;10281906;28;20041;-66
2023/12/17 21:09:18;;;;;;;33.15;23.98;;;;;;;5.81;94.44;102171.75;10276301;28;20226;-68
2023/12/17 21:14:19;;;;;;;31.70;21.60;;;;;;;5.87;94.66;102170.69;10298199;28;20066;-68
2023/12/17 21:19:26;;;;;;;28.60;23.15;;;;;;;5.66;94.52;102173.09;10292655;28;20049;-68
2023/12/17 21:24:27;;;;;;;30.63;22.77;;;;;;;5.66;94.43;102166.00;10287929;28;20141;-68
2023/12/17 21:29:29;;;;;;;29.95;22.65;;;;;;;5.53;94.29;102146.16;10290696;28;20441;-67
2023/12/17 21:34:30;;;;;;;32.30;22.75;;;;;;;5.55;94.09;102146.97;10302692;28;20057;-68
2023/12/17 21:39:32;;;;;;;32.42;22.45;;;;;;;5.51;94.46;102155.91;10266491;28;20199;-68
2023/12/17 21:44:34;;;;;;;28.77;21.70;;;;;;;5.56;94.67;102167.19;10303857;28;20111;-68
2023/12/17 21:49:40;;;;;;;29.65;22.10;;;;;;;5.42;nan;102156.13;10298783;28;20054;-67
2023/12/17 21:54:42;;;;;;;31.95;22.88;;;;;;;5.40;94.39;102152.69;10276411;28;20053;-67
2023/12/17 21:59:43;;;;;;;31.45;22.58;;;;;;;5.43;95.15;102160.53;10293761;28;20689;-69
2023/12/17 22:04:44;;;;;;;31.48;22.42;;;;;;;5.36;94.76;102164.25;10284932;28;20052;-68
2023/12/17 22:09:46;;;;;;;28.20;21.02;;;;;;;5.39;95.06;102157.13;10311769;28;20049;-68
2023/12/17 22:14:47;;;;;;;28.08;21.27;;;;;;;5.41;95.03;102152.66;10300221;28;20064;-67
2023/12/17 22:19:49;;;;;;;28.65;20.90;;;;;;;5.17;95.49;102143.63;10270006;28;20052;-68
2023/12/17 22:24:50;;;;;;;31.92;21.95;;;;;;;5.11;96.37;102157.88;10291594;28;20054;-68
2023/12/17 22:29:52;;;;;;;26.90;20.42;;;;;;;5.27;97.52;102154.81;10271777;28;20113;-67
2023/12/17 22:34:59;;;;;;;29.05;22.27;;;;;;;5.20;96.00;102140.91;10275164;28;20677;-67
2023/12/17 22:40:01;;;;;;;31.98;23.85;;;;;;;4.96;95.78;102106.34;10293314;28;20082;-68
2023/12/17 22:45:05;;;;;;;30.25;21.48;;;;;;;5.23;96.22;102146.09;10292755;28;20046;-68
2023/12/17 22:50:10;;;;;;;28.58;21.30;;;;;;;5.18;95.26;102123.38;10293942;28;20616;-68
2023/12/17 22:55:15;;;;;;;27.07;19.03;;;;;;;5.08;94.70;102133.34;10298927;28;20125;-68
2023/12/17 23:00:17;;;;;;;24.95;19.05;;;;;;;4.92;95.47;102117.94;10287153;28;20389;-67